AUA1MK LOWI-EDDK
Flight info
| Callsign | AUA1MK |
|---|---|
| Flight time | 0h 48m |
| Altitude | 34000 |
| Route | KPT L608 KOVAN T844 UMDAS/N0394F240 T844 ASKIK T840 GULKO GULKO1B |
| Aircraft | A321/M-SDE3FGHIRWY/LB1 |
Departure
| Time | 2026-05-06 18:21 |
|---|---|
| Airport | Innsbruck Airport (LOWI) |
Arrival
| Time | 2026-05-06 19:09 |
|---|---|
| Airport | Cologne Bonn Airport (EDDK) |
| Time | Latitude | Longitude | Altitude | Speed | Heading |
|---|---|---|---|---|---|
| 2026-05-06 18:02 | 47.25838 | 11.35176 | 1908 ft | 0 kts | 171° |
| 2026-05-06 18:14 | 47.25843 | 11.35175 | 1907 ft | 3 kts | 171° |
| 2026-05-06 18:14 | 47.25861 | 11.35171 | 1895 ft | 3 kts | 171° |
| 2026-05-06 18:14 | 47.25881 | 11.35167 | 1900 ft | 3 kts | 159° |
| 2026-05-06 18:15 | 47.25898 | 11.35153 | 1896 ft | 3 kts | 135° |
| 2026-05-06 18:15 | 47.25904 | 11.35143 | 1896 ft | 0 kts | 119° |
| 2026-05-06 18:16 | 47.25902 | 11.35149 | 1896 ft | 0 kts | 119° |
| 2026-05-06 18:16 | 47.25898 | 11.35170 | 1900 ft | 0 kts | 93° |
| 2026-05-06 18:17 | 47.25898 | 11.35172 | 1900 ft | 1 kts | 93° |
| 2026-05-06 18:17 | 47.25900 | 11.35212 | 1903 ft | 7 kts | 82° |
| 2026-05-06 18:17 | 47.25939 | 11.35283 | 1898 ft | 12 kts | 8° |
| 2026-05-06 18:17 | 47.25987 | 11.35274 | 1901 ft | 0 kts | 350° |
| 2026-05-06 18:18 | 47.25987 | 11.35275 | 1901 ft | 1 kts | 350° |
| 2026-05-06 18:19 | 47.25979 | 11.35277 | 1901 ft | 0 kts | 351° |
| 2026-05-06 18:19 | 47.26004 | 11.35270 | 1905 ft | 7 kts | 348° |
| 2026-05-06 18:19 | 47.26061 | 11.35260 | 1899 ft | 10 kts | 2° |
| 2026-05-06 18:19 | 47.26111 | 11.35306 | 1895 ft | 7 kts | 64° |
| 2026-05-06 18:20 | 47.26117 | 11.35381 | 1904 ft | 2 kts | 41° |
| 2026-05-06 18:20 | 47.26132 | 11.35308 | 1898 ft | 11 kts | 236° |
| 2026-05-06 18:20 | 47.26087 | 11.35031 | 1907 ft | 62 kts | 260° |
| 2026-05-06 18:21 | 47.25976 | 11.34041 | 1908 ft | 132 kts | 258° |
| 2026-05-06 18:21 | 47.25793 | 11.32433 | 2075 ft | 175 kts | 256° |
| 2026-05-06 18:21 | 47.25675 | 11.30545 | 2589 ft | 199 kts | 261° |
| 2026-05-06 18:21 | 47.25462 | 11.28443 | 3207 ft | 218 kts | 261° |
| 2026-05-06 18:22 | 47.25486 | 11.26180 | 4056 ft | 225 kts | 285° |
| 2026-05-06 18:22 | 47.26035 | 11.24042 | 4653 ft | 227 kts | 292° |
| 2026-05-06 18:22 | 47.26665 | 11.21879 | 5180 ft | 232 kts | 293° |
| 2026-05-06 18:22 | 47.27320 | 11.19667 | 5715 ft | 237 kts | 292° |
| 2026-05-06 18:23 | 47.27982 | 11.17435 | 6406 ft | 237 kts | 293° |
| 2026-05-06 18:23 | 47.28417 | 11.15962 | 6880 ft | 235 kts | 292° |
| 2026-05-06 18:23 | 47.29070 | 11.13743 | 7515 ft | 237 kts | 291° |
| 2026-05-06 18:23 | 47.29746 | 11.11430 | 7794 ft | 257 kts | 291° |
| 2026-05-06 18:24 | 47.30260 | 11.09519 | 7986 ft | 270 kts | 283° |
| 2026-05-06 18:24 | 47.30512 | 11.06735 | 8423 ft | 279 kts | 265° |
| 2026-05-06 18:24 | 47.30396 | 11.03871 | 9065 ft | 282 kts | 264° |
| 2026-05-06 18:24 | 47.30279 | 11.00999 | 9668 ft | 285 kts | 264° |
| 2026-05-06 18:25 | 47.30160 | 10.98023 | 10113 ft | 297 kts | 264° |
| 2026-05-06 18:25 | 47.30036 | 10.94870 | 10248 ft | 319 kts | 264° |
| 2026-05-06 18:25 | 47.29906 | 10.91516 | 10478 ft | 334 kts | 264° |
| 2026-05-06 18:25 | 47.29963 | 10.88090 | 10965 ft | 343 kts | 275° |
| 2026-05-06 18:26 | 47.30596 | 10.84671 | 11577 ft | 350 kts | 290° |
| 2026-05-06 18:26 | 47.31801 | 10.81529 | 12299 ft | 357 kts | 303° |
| 2026-05-06 18:26 | 47.33512 | 10.78834 | 12921 ft | 364 kts | 315° |
| 2026-05-06 18:26 | 47.35416 | 10.76340 | 13623 ft | 366 kts | 314° |
| 2026-05-06 18:27 | 47.37304 | 10.73847 | 14214 ft | 369 kts | 314° |
| 2026-05-06 18:27 | 47.39261 | 10.71355 | 14783 ft | 374 kts | 319° |
| 2026-05-06 18:27 | 47.41398 | 10.69121 | 15197 ft | 378 kts | 321° |
| 2026-05-06 18:27 | 47.43575 | 10.66885 | 15654 ft | 381 kts | 322° |
| 2026-05-06 18:28 | 47.45761 | 10.64655 | 15842 ft | 382 kts | 322° |
| 2026-05-06 18:28 | 47.47953 | 10.62422 | 15873 ft | 381 kts | 322° |
| 2026-05-06 18:28 | 47.50105 | 10.60225 | 15881 ft | 380 kts | 322° |
| 2026-05-06 18:28 | 47.52284 | 10.57997 | 15885 ft | 380 kts | 322° |
| 2026-05-06 18:29 | 47.54472 | 10.55750 | 15919 ft | 389 kts | 322° |
| 2026-05-06 18:29 | 47.56728 | 10.53426 | 16058 ft | 401 kts | 322° |
| 2026-05-06 18:29 | 47.59055 | 10.51027 | 16200 ft | 411 kts | 322° |
| 2026-05-06 18:29 | 47.61433 | 10.48573 | 16327 ft | 420 kts | 322° |
| 2026-05-06 18:30 | 47.63856 | 10.46071 | 16461 ft | 428 kts | 322° |
| 2026-05-06 18:30 | 47.66323 | 10.43524 | 16603 ft | 436 kts | 322° |
| 2026-05-06 18:30 | 47.68813 | 10.40952 | 16727 ft | 445 kts | 322° |
| 2026-05-06 18:30 | 47.71381 | 10.38296 | 16880 ft | 452 kts | 322° |
| 2026-05-06 18:31 | 47.73819 | 10.35770 | 17150 ft | 455 kts | 322° |
| 2026-05-06 18:31 | 47.76387 | 10.32988 | 17480 ft | 457 kts | 320° |
| 2026-05-06 18:31 | 47.78891 | 10.30059 | 17787 ft | 459 kts | 318° |
| 2026-05-06 18:31 | 47.81364 | 10.27010 | 18120 ft | 462 kts | 317° |
| 2026-05-06 18:32 | 47.83818 | 10.23912 | 18385 ft | 465 kts | 317° |
| 2026-05-06 18:32 | 47.86288 | 10.20786 | 18685 ft | 466 kts | 317° |
| 2026-05-06 18:32 | 47.88787 | 10.17655 | 18972 ft | 469 kts | 317° |
| 2026-05-06 18:32 | 47.91270 | 10.14581 | 19275 ft | 471 kts | 317° |
| 2026-05-06 18:33 | 47.93820 | 10.11455 | 19568 ft | 473 kts | 317° |
| 2026-05-06 18:33 | 47.96376 | 10.08335 | 19854 ft | 475 kts | 317° |
| 2026-05-06 18:33 | 47.98939 | 10.05208 | 20137 ft | 477 kts | 317° |
| 2026-05-06 18:33 | 48.01478 | 10.02104 | 20409 ft | 479 kts | 317° |
| 2026-05-06 18:34 | 48.04058 | 9.98940 | 20679 ft | 481 kts | 317° |
| 2026-05-06 18:34 | 48.06646 | 9.95755 | 20909 ft | 483 kts | 317° |
| 2026-05-06 18:34 | 48.09243 | 9.92545 | 21212 ft | 483 kts | 317° |
| 2026-05-06 18:34 | 48.11842 | 9.89322 | 21541 ft | 483 kts | 317° |
| 2026-05-06 18:35 | 48.14433 | 9.86107 | 21887 ft | 483 kts | 317° |
| 2026-05-06 18:35 | 48.16991 | 9.82931 | 22237 ft | 482 kts | 317° |
| 2026-05-06 18:35 | 48.19588 | 9.79706 | 22609 ft | 482 kts | 317° |
| 2026-05-06 18:35 | 48.22176 | 9.76488 | 22983 ft | 482 kts | 317° |
| 2026-05-06 18:36 | 48.24750 | 9.73278 | 23341 ft | 481 kts | 317° |
| 2026-05-06 18:36 | 48.27297 | 9.70100 | 23673 ft | 481 kts | 317° |
| 2026-05-06 18:36 | 48.29875 | 9.66879 | 23989 ft | 481 kts | 317° |
| 2026-05-06 18:36 | 48.32442 | 9.63672 | 24316 ft | 480 kts | 317° |
| 2026-05-06 18:37 | 48.35017 | 9.60446 | 24645 ft | 479 kts | 317° |
| 2026-05-06 18:37 | 48.37566 | 9.57211 | 24968 ft | 478 kts | 316° |
| 2026-05-06 18:37 | 48.40067 | 9.54007 | 25308 ft | 477 kts | 316° |
| 2026-05-06 18:37 | 48.42623 | 9.50715 | 25662 ft | 476 kts | 316° |
| 2026-05-06 18:38 | 48.45101 | 9.47523 | 25995 ft | 475 kts | 316° |
| 2026-05-06 18:38 | 48.47611 | 9.44288 | 26336 ft | 474 kts | 316° |
| 2026-05-06 18:38 | 48.50126 | 9.41049 | 26682 ft | 473 kts | 316° |
| 2026-05-06 18:38 | 48.52622 | 9.37833 | 27016 ft | 472 kts | 316° |
| 2026-05-06 18:39 | 48.55117 | 9.34615 | 27346 ft | 471 kts | 316° |
| 2026-05-06 18:39 | 48.57618 | 9.31393 | 27664 ft | 471 kts | 316° |
| 2026-05-06 18:39 | 48.60119 | 9.28194 | 27979 ft | 471 kts | 319° |
| 2026-05-06 18:40 | 48.65535 | 9.23478 | 28560 ft | 476 kts | 334° |
| 2026-05-06 18:40 | 48.68538 | 9.21503 | 28853 ft | 476 kts | 334° |
| 2026-05-06 18:40 | 48.71574 | 9.19504 | 29147 ft | 475 kts | 334° |
| 2026-05-06 18:40 | 48.74642 | 9.17476 | 29460 ft | 475 kts | 334° |
| 2026-05-06 18:41 | 48.77636 | 9.15489 | 29761 ft | 474 kts | 334° |
| 2026-05-06 18:41 | 48.80655 | 9.13481 | 30047 ft | 473 kts | 334° |
| 2026-05-06 18:41 | 48.83684 | 9.11466 | 30313 ft | 472 kts | 334° |
| 2026-05-06 18:41 | 48.86696 | 9.09463 | 30576 ft | 471 kts | 334° |
| 2026-05-06 18:42 | 48.89745 | 9.07675 | 30838 ft | 472 kts | 340° |
| 2026-05-06 18:42 | 48.92878 | 9.06112 | 31095 ft | 471 kts | 340° |
| 2026-05-06 18:42 | 48.95988 | 9.04550 | 31352 ft | 471 kts | 340° |
| 2026-05-06 18:42 | 48.99067 | 9.02996 | 31595 ft | 470 kts | 340° |
| 2026-05-06 18:43 | 49.02177 | 9.01427 | 31792 ft | 470 kts | 340° |
| 2026-05-06 18:43 | 49.08387 | 8.98295 | 31839 ft | 470 kts | 340° |
| 2026-05-06 18:44 | 49.14593 | 8.95155 | 31838 ft | 469 kts | 340° |
| 2026-05-06 18:44 | 49.20770 | 8.92019 | 31832 ft | 469 kts | 340° |
| 2026-05-06 18:45 | 49.27012 | 8.88841 | 31835 ft | 470 kts | 340° |
| 2026-05-06 18:45 | 49.33181 | 8.85705 | 31832 ft | 469 kts | 340° |
| 2026-05-06 18:46 | 49.39387 | 8.82544 | 31835 ft | 468 kts | 340° |
| 2026-05-06 18:46 | 49.45622 | 8.79618 | 31833 ft | 468 kts | 343° |
| 2026-05-06 18:47 | 49.51827 | 8.76997 | 31500 ft | 457 kts | 344° |
| 2026-05-06 18:47 | 49.54884 | 8.75715 | 31233 ft | 453 kts | 344° |
| 2026-05-06 18:47 | 49.57910 | 8.74423 | 30975 ft | 449 kts | 344° |
| 2026-05-06 18:47 | 49.60908 | 8.73117 | 30726 ft | 446 kts | 343° |
| 2026-05-06 18:48 | 49.63889 | 8.71800 | 30472 ft | 444 kts | 343° |
| 2026-05-06 18:48 | 49.66723 | 8.70546 | 30229 ft | 441 kts | 343° |
| 2026-05-06 18:48 | 49.69703 | 8.69222 | 29954 ft | 436 kts | 344° |
| 2026-05-06 18:48 | 49.72573 | 8.67944 | 29380 ft | 432 kts | 343° |
| 2026-05-06 18:49 | 49.75453 | 8.66662 | 28877 ft | 427 kts | 343° |
| 2026-05-06 18:49 | 49.78296 | 8.65399 | 28366 ft | 422 kts | 343° |
| 2026-05-06 18:49 | 49.81097 | 8.64155 | 27865 ft | 417 kts | 343° |
| 2026-05-06 18:49 | 49.83880 | 8.62918 | 27366 ft | 412 kts | 343° |
| 2026-05-06 18:50 | 49.86629 | 8.61696 | 26889 ft | 407 kts | 343° |
| 2026-05-06 18:50 | 49.89333 | 8.60489 | 26420 ft | 401 kts | 343° |
| 2026-05-06 18:50 | 49.91965 | 8.59313 | 25966 ft | 396 kts | 343° |
| 2026-05-06 18:50 | 49.94620 | 8.58128 | 25529 ft | 390 kts | 343° |
| 2026-05-06 18:51 | 49.97181 | 8.56982 | 25096 ft | 385 kts | 343° |
| 2026-05-06 18:51 | 49.99748 | 8.55832 | 24843 ft | 386 kts | 343° |
| 2026-05-06 18:51 | 50.02362 | 8.54656 | 24838 ft | 395 kts | 343° |
| 2026-05-06 18:51 | 50.05018 | 8.53466 | 24838 ft | 397 kts | 343° |
| 2026-05-06 18:52 | 50.07656 | 8.52206 | 24839 ft | 397 kts | 341° |
| 2026-05-06 18:52 | 50.10288 | 8.50832 | 24840 ft | 397 kts | 340° |
| 2026-05-06 18:52 | 50.12898 | 8.49403 | 24837 ft | 396 kts | 339° |
| 2026-05-06 18:52 | 50.15493 | 8.47956 | 24800 ft | 397 kts | 339° |
| 2026-05-06 18:53 | 50.18112 | 8.46496 | 23938 ft | 404 kts | 339° |
| 2026-05-06 18:53 | 50.20748 | 8.45035 | 23169 ft | 405 kts | 339° |
| 2026-05-06 18:53 | 50.23390 | 8.43586 | 22049 ft | 397 kts | 339° |
| 2026-05-06 18:53 | 50.25992 | 8.42175 | 20941 ft | 391 kts | 339° |
| 2026-05-06 18:54 | 50.28519 | 8.40750 | 19989 ft | 381 kts | 334° |
| 2026-05-06 18:54 | 50.30765 | 8.38794 | 19803 ft | 356 kts | 325° |
| 2026-05-06 18:54 | 50.32856 | 8.36696 | 19834 ft | 358 kts | 325° |
| 2026-05-06 18:54 | 50.34939 | 8.34634 | 19841 ft | 360 kts | 326° |
| 2026-05-06 18:55 | 50.37067 | 8.32539 | 19833 ft | 360 kts | 326° |
| 2026-05-06 18:55 | 50.39193 | 8.30445 | 19837 ft | 359 kts | 325° |
| 2026-05-06 18:55 | 50.41312 | 8.28339 | 19604 ft | 361 kts | 325° |
| 2026-05-06 18:55 | 50.43465 | 8.26194 | 18615 ft | 367 kts | 325° |
| 2026-05-06 18:56 | 50.45590 | 8.24070 | 17424 ft | 365 kts | 324° |
| 2026-05-06 18:56 | 50.47722 | 8.21928 | 16298 ft | 361 kts | 324° |
| 2026-05-06 18:56 | 50.49744 | 8.19637 | 15252 ft | 353 kts | 313° |
| 2026-05-06 18:56 | 50.51220 | 8.16647 | 14277 ft | 342 kts | 295° |
| 2026-05-06 18:57 | 50.52138 | 8.13235 | 13223 ft | 337 kts | 289° |
| 2026-05-06 18:57 | 50.52981 | 8.09825 | 12346 ft | 329 kts | 289° |
| 2026-05-06 18:57 | 50.53778 | 8.06612 | 12069 ft | 303 kts | 289° |
| 2026-05-06 18:57 | 50.54510 | 8.03664 | 11724 ft | 284 kts | 289° |
| 2026-05-06 18:58 | 50.55227 | 8.00758 | 11379 ft | 286 kts | 289° |
| 2026-05-06 18:58 | 50.55941 | 7.97856 | 11030 ft | 286 kts | 289° |
| 2026-05-06 18:58 | 50.56660 | 7.94927 | 10671 ft | 284 kts | 289° |
| 2026-05-06 18:58 | 50.57370 | 7.92027 | 10323 ft | 283 kts | 289° |
| 2026-05-06 18:59 | 50.58076 | 7.89146 | 10076 ft | 280 kts | 289° |
| 2026-05-06 18:59 | 50.58781 | 7.86271 | 9984 ft | 282 kts | 289° |
| 2026-05-06 18:59 | 50.59485 | 7.83391 | 9856 ft | 281 kts | 290° |
| 2026-05-06 18:59 | 50.60178 | 7.80557 | 9841 ft | 281 kts | 290° |
| 2026-05-06 19:00 | 50.60877 | 7.77690 | 9841 ft | 280 kts | 290° |
| 2026-05-06 19:00 | 50.61580 | 7.74813 | 9568 ft | 282 kts | 290° |
| 2026-05-06 19:00 | 50.62287 | 7.71929 | 9079 ft | 281 kts | 290° |
| 2026-05-06 19:00 | 50.62753 | 7.70022 | 8794 ft | 280 kts | 291° |
| 2026-05-06 19:01 | 50.63683 | 7.66199 | 8230 ft | 277 kts | 291° |
| 2026-05-06 19:01 | 50.64369 | 7.63373 | 7815 ft | 276 kts | 291° |
| 2026-05-06 19:01 | 50.65054 | 7.60548 | 7392 ft | 274 kts | 291° |
| 2026-05-06 19:01 | 50.65733 | 7.57748 | 6972 ft | 273 kts | 291° |
| 2026-05-06 19:02 | 50.66405 | 7.54968 | 6474 ft | 268 kts | 292° |
| 2026-05-06 19:02 | 50.67063 | 7.52234 | 5679 ft | 266 kts | 292° |
| 2026-05-06 19:02 | 50.67715 | 7.49508 | 4949 ft | 262 kts | 292° |
| 2026-05-06 19:02 | 50.68337 | 7.46906 | 4656 ft | 243 kts | 292° |
| 2026-05-06 19:03 | 50.68909 | 7.44523 | 4518 ft | 221 kts | 292° |
| 2026-05-06 19:03 | 50.69427 | 7.42367 | 4425 ft | 200 kts | 292° |
| 2026-05-06 19:03 | 50.69896 | 7.40411 | 4328 ft | 178 kts | 293° |
| 2026-05-06 19:03 | 50.70401 | 7.38724 | 4288 ft | 165 kts | 308° |
| 2026-05-06 19:04 | 50.71125 | 7.37442 | 4091 ft | 154 kts | 316° |
| 2026-05-06 19:04 | 50.71932 | 7.36197 | 3435 ft | 170 kts | 318° |
| 2026-05-06 19:04 | 50.72806 | 7.34906 | 3030 ft | 167 kts | 319° |
| 2026-05-06 19:04 | 50.73614 | 7.33732 | 2997 ft | 151 kts | 319° |
| 2026-05-06 19:05 | 50.74121 | 7.33000 | 2993 ft | 147 kts | 320° |
| 2026-05-06 19:05 | 50.75116 | 7.31568 | 2999 ft | 145 kts | 320° |
| 2026-05-06 19:05 | 50.75860 | 7.30498 | 2904 ft | 144 kts | 320° |
| 2026-05-06 19:05 | 50.76601 | 7.29432 | 2741 ft | 143 kts | 320° |
| 2026-05-06 19:06 | 50.77091 | 7.28728 | 2618 ft | 143 kts | 320° |
| 2026-05-06 19:06 | 50.77824 | 7.27673 | 2441 ft | 143 kts | 320° |
| 2026-05-06 19:06 | 50.78561 | 7.26612 | 2245 ft | 142 kts | 320° |
| 2026-05-06 19:06 | 50.79290 | 7.25562 | 2058 ft | 142 kts | 319° |
| 2026-05-06 19:07 | 50.80015 | 7.24517 | 1861 ft | 141 kts | 319° |
| 2026-05-06 19:07 | 50.80738 | 7.23474 | 1677 ft | 140 kts | 319° |
| 2026-05-06 19:07 | 50.81458 | 7.22435 | 1469 ft | 140 kts | 319° |
| 2026-05-06 19:07 | 50.82182 | 7.21391 | 1264 ft | 141 kts | 317° |
| 2026-05-06 19:08 | 50.82909 | 7.20342 | 1057 ft | 141 kts | 317° |
| 2026-05-06 19:08 | 50.83634 | 7.19294 | 858 ft | 142 kts | 317° |
| 2026-05-06 19:08 | 50.84364 | 7.18239 | 665 ft | 142 kts | 317° |
| 2026-05-06 19:08 | 50.85080 | 7.17204 | 457 ft | 140 kts | 317° |
| 2026-05-06 19:09 | 50.85796 | 7.16163 | 318 ft | 137 kts | 318° |
| 2026-05-06 19:09 | 50.86410 | 7.15271 | 284 ft | 93 kts | 318° |
| 2026-05-06 19:09 | 50.86763 | 7.14760 | 267 ft | 44 kts | 316° |
| 2026-05-06 19:09 | 50.86844 | 7.14585 | 262 ft | 3 kts | 294° |
| 2026-05-06 19:10 | 50.86871 | 7.14462 | 260 ft | 17 kts | 282° |
| 2026-05-06 19:10 | 50.86890 | 7.14277 | 257 ft | 18 kts | 277° |
| 2026-05-06 19:10 | 50.86902 | 7.14133 | 255 ft | 12 kts | 278° |
| 2026-05-06 19:10 | 50.86913 | 7.14000 | 253 ft | 13 kts | 277° |
| 2026-05-06 19:11 | 50.86919 | 7.13962 | 251 ft | 0 kts | 283° |
| 2026-05-06 19:11 | 50.86919 | 7.13961 | 251 ft | 0 kts | 283° |
| 2026-05-06 19:12 | 50.86919 | 7.13960 | 251 ft | 0 kts | 283° |
| 2026-05-06 19:12 | 50.86926 | 7.13955 | 251 ft | 1 kts | 340° |
| 2026-05-06 19:13 | 50.86959 | 7.13971 | 249 ft | 7 kts | 15° |
| 2026-05-06 19:13 | 50.87011 | 7.13952 | 246 ft | 10 kts | 315° |
| 2026-05-06 19:13 | 50.87083 | 7.13844 | 242 ft | 16 kts | 317° |
| 2026-05-06 19:13 | 50.87168 | 7.13721 | 239 ft | 18 kts | 317° |
| 2026-05-06 19:14 | 50.87263 | 7.13586 | 240 ft | 19 kts | 318° |
| 2026-05-06 19:14 | 50.87365 | 7.13436 | 232 ft | 21 kts | 319° |
| 2026-05-06 19:14 | 50.87471 | 7.13289 | 233 ft | 20 kts | 312° |
| 2026-05-06 19:14 | 50.87569 | 7.13143 | 233 ft | 19 kts | 317° |
| 2026-05-06 19:15 | 50.87666 | 7.13007 | 233 ft | 19 kts | 319° |
| 2026-05-06 19:15 | 50.87757 | 7.12870 | 232 ft | 18 kts | 314° |
| 2026-05-06 19:15 | 50.87778 | 7.12705 | 232 ft | 15 kts | 253° |
| 2026-05-06 19:15 | 50.87748 | 7.12550 | 232 ft | 9 kts | 253° |
| 2026-05-06 19:16 | 50.87756 | 7.12467 | 232 ft | 7 kts | 287° |
| 2026-05-06 19:16 | 50.87762 | 7.12436 | 232 ft | 0 kts | 287° |
| 2026-05-06 19:16 | 50.87767 | 7.12410 | 233 ft | 4 kts | 287° |
| 2026-05-06 19:16 | 50.87768 | 7.12406 | 233 ft | 0 kts | 287° |